createdAt,value
2018-03-24T00:01:55.800Z,6.58
2018-03-24T00:04:23.280Z,6.59
2018-03-24T00:06:50.860Z,6.57
2018-03-24T00:09:18.269Z,6.55
2018-03-24T00:11:45.755Z,6.54
2018-03-24T00:14:13.245Z,6.48
2018-03-24T00:16:40.722Z,6.45
2018-03-24T00:19:08.112Z,6.39
2018-03-24T00:21:35.513Z,6.34
2018-03-24T00:24:02.924Z,6.32
2018-03-24T00:26:30.328Z,6.20
2018-03-24T00:28:58.109Z,6.09
2018-03-24T00:31:25.528Z,6.06
2018-03-24T00:33:52.951Z,6.02
2018-03-24T00:36:20.438Z,6.05
2018-03-24T00:38:47.943Z,6.10
2018-03-24T00:41:15.369Z,5.94
2018-03-24T00:43:42.825Z,5.86
2018-03-24T00:46:10.283Z,5.80
2018-03-24T00:48:37.737Z,5.71
2018-03-24T00:51:05.238Z,5.63
2018-03-24T00:53:32.680Z,5.60
2018-03-24T00:56:00.114Z,5.53
2018-03-24T00:58:27.547Z,5.66
2018-03-24T01:00:55.005Z,5.71
2018-03-24T01:03:22.452Z,5.75
2018-03-24T01:05:49.885Z,5.72
2018-03-24T01:08:17.293Z,5.68
2018-03-24T01:10:44.754Z,5.76
2018-03-24T01:13:12.211Z,5.82
2018-03-24T01:15:39.690Z,5.84
2018-03-24T01:18:07.110Z,5.75
2018-03-24T01:20:34.564Z,5.70
2018-03-24T01:23:01.951Z,5.66
2018-03-24T01:25:29.385Z,5.64
2018-03-24T01:27:56.792Z,5.61
2018-03-24T01:30:24.261Z,5.50
2018-03-24T01:32:51.677Z,5.53
2018-03-24T01:35:19.163Z,5.62
2018-03-24T01:37:46.921Z,5.64
2018-03-24T01:40:15.081Z,5.58
2018-03-24T01:42:42.492Z,5.47
2018-03-24T01:45:09.947Z,5.35
2018-03-24T01:47:37.368Z,5.21
2018-03-24T01:50:04.822Z,5.01
2018-03-24T01:52:32.242Z,5.09
2018-03-24T01:55:00.204Z,5.18
2018-03-24T01:57:28.483Z,5.25
2018-03-24T01:59:56.624Z,5.23
2018-03-24T02:02:24.045Z,5.22
2018-03-24T02:04:51.564Z,5.23
2018-03-24T02:07:19.019Z,5.27
2018-03-24T02:09:46.476Z,5.30
2018-03-24T02:12:13.942Z,5.31
2018-03-24T02:14:41.359Z,5.31
2018-03-24T02:17:08.799Z,5.39
2018-03-24T02:19:36.242Z,5.42
2018-03-24T02:22:03.674Z,5.37
2018-03-24T02:24:31.205Z,5.31
2018-03-24T02:26:58.694Z,5.26
2018-03-24T02:29:26.154Z,5.28
2018-03-24T02:31:53.605Z,5.28
2018-03-24T02:34:21.040Z,5.31
2018-03-24T02:36:48.538Z,5.28
2018-03-24T02:39:15.928Z,5.24
2018-03-24T02:41:43.384Z,5.27
2018-03-24T02:44:10.790Z,5.31
2018-03-24T02:46:38.263Z,5.35
2018-03-24T02:49:05.689Z,5.34
2018-03-24T02:51:33.143Z,5.36
2018-03-24T02:54:00.561Z,5.33
2018-03-24T02:56:27.985Z,5.23
2018-03-24T02:58:55.432Z,5.11
2018-03-24T03:01:22.851Z,5.05
2018-03-24T03:03:50.290Z,5.04
2018-03-24T03:06:17.743Z,4.97
2018-03-24T03:08:45.156Z,4.92
2018-03-24T03:11:12.568Z,4.94
2018-03-24T03:13:39.997Z,4.90
2018-03-24T03:16:07.418Z,4.92
2018-03-24T03:18:34.804Z,4.72
2018-03-24T03:21:02.259Z,4.60
2018-03-24T03:23:29.669Z,4.56
2018-03-24T03:25:57.130Z,4.38
2018-03-24T03:28:24.557Z,4.13
2018-03-24T03:33:48.033Z,4.52
2018-03-24T03:36:15.490Z,4.39
2018-03-24T03:38:42.921Z,4.28
2018-03-24T03:41:10.349Z,4.29
2018-03-24T03:43:37.825Z,4.29
2018-03-24T03:46:05.223Z,4.22
2018-03-24T03:48:32.619Z,4.21
2018-03-24T03:51:00.221Z,4.19
2018-03-24T03:53:27.649Z,4.13
2018-03-24T03:55:55.298Z,4.13
2018-03-24T03:58:22.692Z,4.14
2018-03-24T04:00:50.166Z,4.17
2018-03-24T04:03:17.596Z,4.19
2018-03-24T04:05:45.360Z,4.19
2018-03-24T04:08:12.897Z,4.16
2018-03-24T04:10:40.484Z,4.19
2018-03-24T04:13:07.873Z,4.11
2018-03-24T04:15:36.160Z,4.08
2018-03-24T04:18:03.824Z,4.13
2018-03-24T04:20:31.280Z,4.16
2018-03-24T04:22:58.702Z,4.16
2018-03-24T04:25:26.202Z,4.16
2018-03-24T04:27:53.635Z,4.19
2018-03-24T04:30:21.020Z,4.15
2018-03-24T04:32:48.971Z,4.13
2018-03-24T04:35:16.409Z,4.09
2018-03-24T04:37:43.830Z,4.12
2018-03-24T04:40:11.250Z,4.14
2018-03-24T04:42:38.674Z,4.13
2018-03-24T04:45:06.159Z,4.19
2018-03-24T04:47:33.574Z,4.21
2018-03-24T04:50:01.225Z,4.21
2018-03-24T04:52:28.636Z,4.17
2018-03-24T04:54:56.061Z,4.13
2018-03-24T04:57:23.984Z,4.05
2018-03-24T04:59:51.377Z,3.91
2018-03-24T05:02:18.813Z,3.75
2018-03-24T05:04:46.238Z,3.76
2018-03-24T05:07:13.837Z,3.84
2018-03-24T05:09:41.301Z,3.83
2018-03-24T05:12:08.748Z,3.89
2018-03-24T05:14:36.189Z,3.97
2018-03-24T05:17:03.680Z,3.90
2018-03-24T05:19:31.123Z,3.91
2018-03-24T05:21:58.544Z,3.80
2018-03-24T05:24:26.031Z,3.84
2018-03-24T05:26:53.440Z,3.93
2018-03-24T05:29:20.881Z,3.99
2018-03-24T05:31:48.413Z,4.03
2018-03-24T05:34:15.810Z,4.00
2018-03-24T05:36:43.374Z,3.93
2018-03-24T05:39:10.984Z,4.00
2018-03-24T05:41:38.735Z,4.09
2018-03-24T05:44:06.341Z,4.11
2018-03-24T05:46:33.830Z,4.18
2018-03-24T05:49:01.287Z,4.17
2018-03-24T05:51:28.674Z,4.15
2018-03-24T05:53:56.084Z,4.20
2018-03-24T05:56:23.646Z,4.49
2018-03-24T05:58:51.028Z,5.13
2018-03-24T06:01:18.505Z,5.62
2018-03-24T06:03:46.020Z,5.92
2018-03-24T06:06:13.486Z,6.31
2018-03-24T06:08:40.886Z,6.85
2018-03-24T06:11:08.346Z,7.43
2018-03-24T06:13:35.810Z,7.86
2018-03-24T06:16:03.234Z,8.28
2018-03-24T06:18:30.652Z,8.61
2018-03-24T06:20:58.095Z,8.87
2018-03-24T06:23:25.505Z,9.11
2018-03-24T06:25:52.938Z,9.45
2018-03-24T06:28:20.398Z,9.62
2018-03-24T06:30:50.160Z,9.92
2018-03-24T06:33:17.544Z,10.19
2018-03-24T06:35:45.007Z,10.34
2018-03-24T06:38:12.442Z,10.58
2018-03-24T06:40:39.922Z,10.92
2018-03-24T06:43:07.538Z,11.38
2018-03-24T06:45:34.966Z,11.55
2018-03-24T06:48:02.430Z,11.80
2018-03-24T06:50:29.882Z,11.76
2018-03-24T06:52:57.282Z,12.14
2018-03-24T06:55:24.829Z,12.26
2018-03-24T06:57:52.246Z,12.69
2018-03-24T07:00:19.777Z,13.08
2018-03-24T07:02:47.230Z,13.42
2018-03-24T07:05:14.860Z,13.50
2018-03-24T07:07:42.279Z,13.72
2018-03-24T07:10:09.701Z,13.69
2018-03-24T07:12:38.031Z,13.91
2018-03-24T07:15:05.444Z,14.26
2018-03-24T07:17:32.869Z,14.38
2018-03-24T07:20:00.442Z,14.38
2018-03-24T07:22:27.883Z,14.36
2018-03-24T07:24:55.317Z,14.13
2018-03-24T07:27:22.744Z,13.91
2018-03-24T07:29:50.169Z,14.43
2018-03-24T07:32:17.606Z,14.97
2018-03-24T07:34:45.021Z,15.30
2018-03-24T07:37:12.454Z,15.15
2018-03-24T07:39:40.570Z,15.26
2018-03-24T07:42:08.026Z,15.25
2018-03-24T07:44:35.469Z,14.92
2018-03-24T07:47:03.061Z,15.00
2018-03-24T07:49:30.504Z,14.88
2018-03-24T07:51:57.937Z,15.20
2018-03-24T07:54:25.344Z,15.78
2018-03-24T07:56:52.786Z,16.14
2018-03-24T07:59:20.521Z,16.55
2018-03-24T08:01:47.942Z,16.98
2018-03-24T08:04:15.422Z,17.41
2018-03-24T08:06:42.909Z,17.75
2018-03-24T08:09:10.370Z,17.19
2018-03-24T08:11:37.805Z,17.10
2018-03-24T08:14:05.304Z,16.87
2018-03-24T08:16:32.736Z,17.11
2018-03-24T08:19:00.198Z,17.50
2018-03-24T08:21:27.645Z,17.41
2018-03-24T08:23:55.042Z,16.80
2018-03-24T08:26:22.481Z,17.13
2018-03-24T08:28:50.256Z,17.25
2018-03-24T08:31:17.709Z,17.42
2018-03-24T08:33:45.118Z,17.61
2018-03-24T08:36:12.544Z,17.62
2018-03-24T08:38:40.015Z,17.34
2018-03-24T08:41:07.441Z,17.02
2018-03-24T08:43:35.514Z,16.54
2018-03-24T08:46:02.958Z,15.93
2018-03-24T08:48:30.410Z,15.62
2018-03-24T08:50:57.804Z,15.64
2018-03-24T08:53:25.208Z,15.65
2018-03-24T08:55:52.661Z,15.76
2018-03-24T08:58:20.126Z,15.78
2018-03-24T09:00:47.574Z,15.52
2018-03-24T09:03:14.986Z,15.40
2018-03-24T09:05:42.405Z,15.63
2018-03-24T09:08:10.779Z,15.38
2018-03-24T09:10:38.239Z,15.37
2018-03-24T09:13:05.671Z,16.03
2018-03-24T09:15:33.210Z,16.01
2018-03-24T09:18:00.618Z,15.41
2018-03-24T09:20:28.055Z,14.99
2018-03-24T09:22:55.495Z,15.14
2018-03-24T09:25:22.957Z,14.84
2018-03-24T09:27:50.405Z,14.85
2018-03-24T09:30:17.838Z,14.91
2018-03-24T09:32:45.298Z,14.94
2018-03-24T09:35:12.828Z,14.47
2018-03-24T09:37:40.290Z,14.38
2018-03-24T09:40:07.806Z,14.51
2018-03-24T09:42:35.310Z,14.30
2018-03-24T09:45:03.784Z,14.22
2018-03-24T09:47:31.219Z,13.78
2018-03-24T09:49:58.591Z,13.64
2018-03-24T09:52:26.457Z,13.89
2018-03-24T09:54:54.461Z,14.28
2018-03-24T09:57:21.909Z,14.45
2018-03-24T09:59:49.369Z,14.38
2018-03-24T10:02:16.800Z,14.45
2018-03-24T10:04:44.353Z,14.49
2018-03-24T10:07:11.846Z,14.38
2018-03-24T10:09:39.484Z,14.54
2018-03-24T10:12:06.916Z,14.56
2018-03-24T10:14:34.350Z,14.43
2018-03-24T10:17:01.823Z,14.61
2018-03-24T10:19:29.245Z,14.59
2018-03-24T10:24:55.128Z,14.10
2018-03-24T10:27:22.593Z,14.19
2018-03-24T10:29:50.025Z,14.34
2018-03-24T10:32:17.479Z,14.46
2018-03-24T10:34:44.914Z,14.49
2018-03-24T10:37:12.348Z,14.40
2018-03-24T10:39:39.830Z,14.39
2018-03-24T10:42:07.271Z,14.61
2018-03-24T10:47:08.469Z,14.90
2018-03-24T10:49:35.869Z,15.16
2018-03-24T10:52:03.319Z,15.16
2018-03-24T10:54:30.711Z,15.20
2018-03-24T10:56:58.185Z,15.39
2018-03-24T10:59:25.593Z,15.25
2018-03-24T11:01:53.051Z,15.20
2018-03-24T11:04:20.479Z,15.06
2018-03-24T11:06:47.925Z,14.97
2018-03-24T11:09:15.331Z,15.01
2018-03-24T11:11:42.769Z,15.18
2018-03-24T11:14:10.196Z,15.39
2018-03-24T11:16:37.588Z,15.59
2018-03-24T11:19:05.021Z,15.97
2018-03-24T11:21:32.513Z,16.01
2018-03-24T11:23:59.937Z,16.15
2018-03-24T11:26:27.549Z,16.52
2018-03-24T11:28:54.974Z,16.26
2018-03-24T11:31:22.432Z,15.88
2018-03-24T11:33:50.108Z,16.01
2018-03-24T11:36:18.378Z,16.06
2018-03-24T11:38:45.855Z,15.97
2018-03-24T11:41:13.290Z,16.02
2018-03-24T11:43:40.690Z,16.12
2018-03-24T11:46:08.504Z,16.12
2018-03-24T11:48:36.091Z,16.09
2018-03-24T11:51:03.534Z,16.05
2018-03-24T11:53:42.867Z,16.17
2018-03-24T11:56:10.440Z,16.04
2018-03-24T11:58:37.863Z,16.02
2018-03-24T12:01:05.357Z,16.10
2018-03-24T12:03:32.774Z,16.33
2018-03-24T12:06:00.258Z,16.43
2018-03-24T12:08:27.726Z,16.61
2018-03-24T12:10:55.152Z,16.68
2018-03-24T12:13:22.560Z,16.90
2018-03-24T12:15:49.997Z,17.04
2018-03-24T12:18:17.428Z,17.26
2018-03-24T12:20:44.891Z,17.82
2018-03-24T12:23:12.297Z,18.38
2018-03-24T12:25:39.732Z,18.04
2018-03-24T12:28:07.169Z,17.61
2018-03-24T12:30:34.596Z,17.66
2018-03-24T12:33:02.027Z,17.91
2018-03-24T12:35:29.381Z,18.10
2018-03-24T12:37:56.781Z,18.71
2018-03-24T12:40:24.409Z,18.81
2018-03-24T12:42:51.809Z,18.83
2018-03-24T12:45:19.244Z,18.54
2018-03-24T12:47:46.681Z,18.73
2018-03-24T12:50:14.113Z,18.75
2018-03-24T12:52:41.636Z,19.17
2018-03-24T12:55:09.109Z,19.79
2018-03-24T12:57:36.584Z,20.49
2018-03-24T13:00:04.024Z,20.25
2018-03-24T13:02:31.486Z,20.33
2018-03-24T13:04:58.901Z,19.92
2018-03-24T13:07:26.366Z,20.16
2018-03-24T13:09:53.857Z,20.58
2018-03-24T13:12:21.393Z,20.55
2018-03-24T13:14:48.849Z,19.89
2018-03-24T13:17:16.686Z,19.46
2018-03-24T13:19:44.122Z,19.33
2018-03-24T13:22:11.496Z,19.15
2018-03-24T13:24:38.890Z,19.35
2018-03-24T13:27:06.365Z,19.44
2018-03-24T13:29:33.834Z,19.25
2018-03-24T13:32:01.253Z,18.76
2018-03-24T13:34:28.730Z,18.74
2018-03-24T13:36:56.176Z,18.80
2018-03-24T13:39:23.730Z,18.73
2018-03-24T13:41:51.207Z,18.71
2018-03-24T13:44:19.035Z,18.70
2018-03-24T13:46:46.490Z,18.73
2018-03-24T13:49:13.921Z,18.80
2018-03-24T13:51:41.322Z,18.84
2018-03-24T13:54:09.262Z,18.72
2018-03-24T13:56:36.742Z,18.34
2018-03-24T13:59:04.171Z,18.18
2018-03-24T14:01:31.816Z,17.95
2018-03-24T14:03:59.223Z,17.91
2018-03-24T14:06:26.649Z,17.94
2018-03-24T14:08:54.085Z,18.04
2018-03-24T14:11:21.599Z,18.07
2018-03-24T14:13:49.061Z,18.25
2018-03-24T14:16:16.554Z,18.22
2018-03-24T14:18:44.087Z,18.29
2018-03-24T14:21:11.965Z,18.34
2018-03-24T14:23:39.395Z,18.44
2018-03-24T14:26:06.816Z,18.37
2018-03-24T14:28:34.328Z,18.45
2018-03-24T14:31:01.790Z,18.54
2018-03-24T14:33:29.213Z,18.49
2018-03-24T14:35:56.626Z,18.32
2018-03-24T14:38:24.092Z,18.44
2018-03-24T14:40:51.922Z,18.38
2018-03-24T14:43:19.434Z,18.18
2018-03-24T14:45:47.070Z,18.12
2018-03-24T14:48:14.452Z,18.14
2018-03-24T14:50:41.894Z,18.09
2018-03-24T14:53:09.320Z,18.20
2018-03-24T14:55:36.775Z,17.92
2018-03-24T14:58:04.180Z,17.75
2018-03-24T15:00:32.464Z,17.89
2018-03-24T15:03:00.196Z,17.95
2018-03-24T15:05:27.606Z,17.83
2018-03-24T15:07:55.007Z,17.80
2018-03-24T15:10:22.452Z,17.91
2018-03-24T15:12:49.865Z,18.12
2018-03-24T15:15:17.262Z,18.33
2018-03-24T15:17:44.752Z,18.44
2018-03-24T15:20:12.172Z,18.47
2018-03-24T15:22:39.659Z,18.30
2018-03-24T15:25:07.446Z,18.32
2018-03-24T15:27:34.934Z,18.15
2018-03-24T15:30:14.061Z,17.98
2018-03-24T15:32:52.320Z,17.78
2018-03-24T15:35:34.348Z,17.69
2018-03-24T15:38:01.818Z,17.41
2018-03-24T15:40:29.252Z,17.24
2018-03-24T15:42:56.671Z,17.06
2018-03-24T15:45:24.078Z,16.91
2018-03-24T15:47:51.616Z,16.76
2018-03-24T15:50:19.122Z,16.65
2018-03-24T15:52:46.574Z,16.64
2018-03-24T15:55:14.028Z,16.59
2018-03-24T15:57:41.569Z,16.55
2018-03-24T16:00:08.961Z,16.63
2018-03-24T16:02:36.366Z,16.75
2018-03-24T16:05:03.789Z,16.87
2018-03-24T16:07:31.591Z,16.96
2018-03-24T16:09:59.051Z,17.14
2018-03-24T16:12:26.532Z,17.11
2018-03-24T16:14:53.962Z,16.87
2018-03-24T16:17:21.556Z,16.85
2018-03-24T16:19:48.990Z,17.02
2018-03-24T16:22:16.471Z,16.70
2018-03-24T16:24:43.968Z,16.42
2018-03-24T16:27:11.499Z,16.55
2018-03-24T16:29:38.937Z,16.20
2018-03-24T16:32:06.607Z,16.11
2018-03-24T16:34:34.349Z,15.90
2018-03-24T16:37:01.746Z,15.86
2018-03-24T16:39:29.226Z,15.85
2018-03-24T16:41:56.639Z,15.71
2018-03-24T16:44:24.065Z,15.61
2018-03-24T16:46:51.515Z,15.61
2018-03-24T16:49:18.959Z,15.35
2018-03-24T16:51:46.441Z,15.22
2018-03-24T16:54:13.872Z,15.13
2018-03-24T16:56:41.288Z,15.08
2018-03-24T16:59:08.730Z,14.91
2018-03-24T17:01:36.296Z,14.78
2018-03-24T17:04:03.725Z,14.73
2018-03-24T17:06:31.220Z,14.54
2018-03-24T17:08:58.774Z,14.36
2018-03-24T17:11:26.229Z,14.10
2018-03-24T17:13:53.694Z,13.92
2018-03-24T17:16:21.121Z,13.85
2018-03-24T17:18:48.548Z,13.85
2018-03-24T17:21:16.001Z,13.81
2018-03-24T17:23:43.481Z,13.65
2018-03-24T17:26:10.883Z,13.55
2018-03-24T17:28:38.277Z,13.60
2018-03-24T17:31:05.679Z,13.69
2018-03-24T17:33:33.075Z,13.62
2018-03-24T17:36:01.147Z,13.59
2018-03-24T17:38:28.570Z,13.60
2018-03-24T17:40:56.084Z,13.53
2018-03-24T17:43:23.519Z,13.47
2018-03-24T17:45:51.043Z,13.39
2018-03-24T17:48:18.586Z,13.27
2018-03-24T17:50:45.972Z,13.15
2018-03-24T17:53:13.426Z,13.07
2018-03-24T17:55:40.900Z,12.99
2018-03-24T17:58:08.328Z,12.88
2018-03-24T18:00:35.782Z,12.80
2018-03-24T18:03:03.235Z,12.77
2018-03-24T18:05:30.664Z,12.77
2018-03-24T18:07:58.165Z,12.74
2018-03-24T18:10:25.728Z,12.70
2018-03-24T18:12:53.282Z,12.62
2018-03-24T18:15:20.840Z,12.57
2018-03-24T18:17:48.232Z,12.54
2018-03-24T18:20:15.656Z,12.50
2018-03-24T18:22:43.088Z,12.49
2018-03-24T18:25:10.476Z,12.50
2018-03-24T18:27:38.355Z,12.46
2018-03-24T18:30:05.829Z,12.41
2018-03-24T18:32:33.250Z,12.39
2018-03-24T18:35:00.703Z,12.47
2018-03-24T18:37:28.125Z,12.53
2018-03-24T18:39:56.371Z,12.59
2018-03-24T18:42:23.779Z,12.54
2018-03-24T18:44:51.193Z,12.43
2018-03-24T18:47:18.698Z,12.35
2018-03-24T18:49:46.131Z,12.32
2018-03-24T18:52:13.557Z,12.28
2018-03-24T18:54:41.023Z,12.25
2018-03-24T18:57:08.566Z,12.22
2018-03-24T18:59:35.974Z,12.16
2018-03-24T19:02:03.430Z,12.07
2018-03-24T19:04:30.844Z,12.03
2018-03-24T19:06:58.363Z,12.13
2018-03-24T19:09:25.840Z,12.12
2018-03-24T19:11:53.248Z,12.13
2018-03-24T19:14:20.705Z,12.16
2018-03-24T19:16:48.134Z,12.30
2018-03-24T19:19:15.573Z,12.38
2018-03-24T19:21:42.997Z,12.45
2018-03-24T19:24:10.488Z,12.43
2018-03-24T19:26:37.931Z,12.35
2018-03-24T19:29:05.357Z,12.35
2018-03-24T19:31:32.870Z,12.40
2018-03-24T19:34:00.278Z,12.46
2018-03-24T19:36:27.756Z,12.41
2018-03-24T19:38:55.864Z,12.24
2018-03-24T19:41:23.331Z,12.04
2018-03-24T19:43:50.904Z,11.90
2018-03-24T19:46:18.520Z,11.80
2018-03-24T19:48:45.990Z,11.68
2018-03-24T19:51:13.448Z,11.73
2018-03-24T19:53:40.910Z,11.81
2018-03-24T19:56:08.358Z,11.83
2018-03-24T19:58:35.880Z,11.79
2018-03-24T20:01:03.349Z,11.84
2018-03-24T20:03:30.751Z,11.87
2018-03-24T20:05:58.205Z,11.97
2018-03-24T20:08:25.649Z,12.01
2018-03-24T20:10:53.272Z,12.07
2018-03-24T20:13:20.714Z,12.13
2018-03-24T20:15:48.468Z,12.10
2018-03-24T20:18:16.297Z,12.19
2018-03-24T20:20:43.737Z,12.22
2018-03-24T20:23:11.144Z,12.28
2018-03-24T20:25:38.620Z,12.15
2018-03-24T20:28:06.032Z,11.94
2018-03-24T20:30:33.479Z,11.89
2018-03-24T20:33:01.015Z,11.92
2018-03-24T20:35:28.423Z,12.07
2018-03-24T20:37:56.010Z,12.10
2018-03-24T20:40:23.434Z,12.17
2018-03-24T20:42:50.918Z,12.13
2018-03-24T20:45:18.391Z,11.98
2018-03-24T20:47:45.989Z,11.86
2018-03-24T20:50:13.344Z,11.89
2018-03-24T20:52:40.763Z,11.94
2018-03-24T20:55:08.218Z,12.01
2018-03-24T20:57:35.788Z,12.03
2018-03-24T21:00:03.241Z,11.86
2018-03-24T21:02:30.911Z,11.86
2018-03-24T21:04:58.363Z,11.89
2018-03-24T21:07:25.755Z,11.93
2018-03-24T21:09:53.206Z,11.77
2018-03-24T21:12:20.655Z,11.71
2018-03-24T21:14:48.101Z,11.73
2018-03-24T21:17:15.541Z,11.75
2018-03-24T21:19:43.108Z,11.74
2018-03-24T21:22:10.564Z,11.69
2018-03-24T21:24:37.984Z,11.71
2018-03-24T21:27:05.479Z,11.69
2018-03-24T21:29:32.870Z,11.71
2018-03-24T21:32:00.327Z,11.69
2018-03-24T21:34:27.804Z,11.61
2018-03-24T21:36:55.243Z,11.60
2018-03-24T21:39:22.671Z,11.76
2018-03-24T21:41:50.104Z,11.79
2018-03-24T21:44:17.525Z,11.91
2018-03-24T21:46:44.963Z,11.83
2018-03-24T21:49:12.367Z,11.73
2018-03-24T21:51:40.517Z,11.48
2018-03-24T21:54:07.891Z,11.43
2018-03-24T21:56:35.287Z,11.44
2018-03-24T21:59:02.754Z,11.46
2018-03-24T22:01:30.290Z,11.53
2018-03-24T22:03:57.743Z,11.48
2018-03-24T22:06:25.138Z,11.46
2018-03-24T22:08:52.574Z,11.50
2018-03-24T22:11:20.001Z,11.49
2018-03-24T22:13:47.389Z,11.39
2018-03-24T22:16:14.837Z,11.32
2018-03-24T22:18:42.325Z,11.29
2018-03-24T22:21:09.747Z,11.20
2018-03-24T22:23:37.152Z,11.11
2018-03-24T22:26:04.585Z,11.06
2018-03-24T22:28:31.972Z,11.10
2018-03-24T22:30:59.385Z,11.14
2018-03-24T22:33:26.788Z,11.14
2018-03-24T22:35:54.232Z,11.13
2018-03-24T22:38:21.654Z,11.07
2018-03-24T22:40:49.081Z,10.98
2018-03-24T22:43:16.558Z,10.87
2018-03-24T22:45:43.985Z,10.83
2018-03-24T22:48:11.406Z,10.79
2018-03-24T22:50:38.829Z,10.73
2018-03-24T22:53:06.314Z,10.69
2018-03-24T22:55:33.810Z,10.56
2018-03-24T22:58:01.258Z,10.45
2018-03-24T23:00:28.720Z,10.43
2018-03-24T23:02:56.211Z,10.40
2018-03-24T23:05:23.682Z,10.40
2018-03-24T23:07:51.098Z,10.40
2018-03-24T23:10:18.576Z,10.40
2018-03-24T23:12:46.042Z,10.44
2018-03-24T23:15:13.513Z,10.50
2018-03-24T23:17:41.063Z,10.51
2018-03-24T23:20:08.510Z,10.41
2018-03-24T23:22:35.928Z,10.36
2018-03-24T23:25:03.359Z,10.27
2018-03-24T23:27:30.746Z,10.28
2018-03-24T23:29:58.338Z,10.34
2018-03-24T23:32:25.756Z,10.39
2018-03-24T23:34:53.144Z,10.37
2018-03-24T23:37:20.593Z,10.32
2018-03-24T23:39:47.982Z,10.27
2018-03-24T23:42:15.488Z,10.22
2018-03-24T23:44:43.085Z,10.25
2018-03-24T23:47:10.551Z,10.22
2018-03-24T23:49:37.936Z,10.26
2018-03-24T23:52:05.373Z,10.31
2018-03-24T23:54:32.835Z,10.32
2018-03-24T23:57:00.265Z,10.36
2018-03-24T23:59:27.853Z,10.33
